createdAt,value
2019-04-06T00:00:04.217Z,8.73
2019-04-06T00:01:04.224Z,8.77
2019-04-06T00:02:04.234Z,8.84
2019-04-06T00:03:04.245Z,8.79
2019-04-06T00:04:04.256Z,8.94
2019-04-06T00:05:04.430Z,8.89
2019-04-06T00:09:05.216Z,8.94
2019-04-06T00:10:04.347Z,8.99
2019-04-06T00:11:04.352Z,8.98
2019-04-06T00:12:04.422Z,8.99
2019-04-06T00:13:04.390Z,9.01
2019-04-06T00:14:04.391Z,8.98
2019-04-06T00:15:04.394Z,8.86
2019-04-06T00:16:04.411Z,8.83
2019-04-06T00:17:04.424Z,8.86
2019-04-06T00:18:04.432Z,8.81
2019-04-06T00:19:04.464Z,8.86
2019-04-06T00:20:04.818Z,8.81
2019-04-06T00:21:04.479Z,8.87
2019-04-06T00:23:04.494Z,8.92
2019-04-06T00:24:04.512Z,8.84
2019-04-06T00:25:04.523Z,8.87
2019-04-06T00:26:04.530Z,8.92
2019-04-06T00:27:04.542Z,8.91
2019-04-06T00:28:04.560Z,8.91
2019-04-06T00:29:04.564Z,8.99
2019-04-06T00:30:04.578Z,8.99
2019-04-06T00:31:04.592Z,9.02
2019-04-06T00:32:04.625Z,9.02
2019-04-06T00:33:04.620Z,8.95
2019-04-06T00:34:04.656Z,8.98
2019-04-06T00:35:04.844Z,8.89
2019-04-06T00:36:05.105Z,8.89
2019-04-06T00:37:04.722Z,8.91
2019-04-06T00:38:05.637Z,8.94
2019-04-06T00:39:05.326Z,8.86
2019-04-06T00:40:05.173Z,8.83
2019-04-06T00:41:04.763Z,8.81
2019-04-06T00:42:04.752Z,8.84
2019-04-06T00:43:04.795Z,8.79
2019-04-06T00:44:04.811Z,8.79
2019-04-06T00:45:04.766Z,8.81
2019-04-06T00:46:04.780Z,8.83
2019-04-06T00:47:04.793Z,8.83
2019-04-06T00:48:04.807Z,8.84
2019-04-06T00:49:04.813Z,8.81
2019-04-06T00:50:04.829Z,8.76
2019-04-06T00:51:04.839Z,8.79
2019-04-06T00:52:04.862Z,8.71
2019-04-06T00:53:05.092Z,8.80
2019-04-06T00:55:05.495Z,8.76
2019-04-06T00:56:05.560Z,8.77
2019-04-06T00:57:04.951Z,8.80
2019-04-06T00:58:04.963Z,8.77
2019-04-06T00:59:05.047Z,8.84
2019-04-06T01:00:04.952Z,8.86
2019-04-06T01:01:04.966Z,8.89
2019-04-06T01:02:04.987Z,8.86
2019-04-06T01:03:05.011Z,8.89
2019-04-06T01:04:05.000Z,8.81
2019-04-06T01:05:05.013Z,8.95
2019-04-06T01:06:05.025Z,8.92
2019-04-06T01:07:05.744Z,8.92
2019-04-06T01:08:05.059Z,8.92
2019-04-06T01:09:05.082Z,8.89
2019-04-06T01:10:05.833Z,8.86
2019-04-06T01:11:05.441Z,8.89
2019-04-06T01:12:05.451Z,8.91
2019-04-06T01:13:05.720Z,8.94
2019-04-06T01:14:05.196Z,8.94
2019-04-06T01:15:05.198Z,8.91
2019-04-06T01:16:05.227Z,8.83
2019-04-06T01:17:05.167Z,8.77
2019-04-06T01:18:05.176Z,8.77
2019-04-06T01:19:05.227Z,8.81
2019-04-06T01:20:05.209Z,8.80
2019-04-06T01:21:05.215Z,8.86
2019-04-06T01:22:05.233Z,8.96
2019-04-06T01:23:05.235Z,8.84
2019-04-06T01:24:05.262Z,8.91
2019-04-06T01:25:05.268Z,8.99
2019-04-06T01:27:06.072Z,8.91
2019-04-06T01:28:05.323Z,8.98
2019-04-06T01:29:05.313Z,8.87
2019-04-06T01:30:06.258Z,8.96
2019-04-06T01:31:06.501Z,8.98
2019-04-06T01:32:05.352Z,8.87
2019-04-06T01:33:05.364Z,8.94
2019-04-06T01:34:05.379Z,8.91
2019-04-06T01:35:05.390Z,8.95
2019-04-06T01:36:05.401Z,8.87
2019-04-06T01:37:05.466Z,8.89
2019-04-06T01:39:05.750Z,8.84
2019-04-06T01:40:05.695Z,8.87
2019-04-06T01:41:06.315Z,8.80
2019-04-06T01:46:05.574Z,9.04
2019-04-06T01:47:05.547Z,8.92
2019-04-06T01:48:05.590Z,8.98
2019-04-06T01:49:05.564Z,9.05
2019-04-06T01:50:05.572Z,8.95
2019-04-06T01:51:05.587Z,8.96
2019-04-06T01:52:05.602Z,9.01
2019-04-06T01:53:05.613Z,8.96
2019-04-06T01:54:05.631Z,8.96
2019-04-06T01:55:05.651Z,8.99
2019-04-06T01:56:05.663Z,8.98
2019-04-06T01:57:05.662Z,8.98
2019-04-06T02:01:06.330Z,8.89
2019-04-06T02:02:06.423Z,8.86
2019-04-06T02:03:05.804Z,8.92
2019-04-06T02:04:06.545Z,8.91
2019-04-06T02:05:05.765Z,8.86
2019-04-06T02:06:05.772Z,8.80
2019-04-06T02:07:05.795Z,8.91
2019-04-06T02:08:05.796Z,8.87
2019-04-06T02:09:05.927Z,8.91
2019-04-06T02:10:05.831Z,8.84
2019-04-06T02:12:05.894Z,8.81
2019-04-06T02:13:05.872Z,8.80
2019-04-06T02:16:06.941Z,8.91
2019-04-06T02:17:06.867Z,8.98
2019-04-06T02:18:06.371Z,8.98
2019-04-06T02:19:06.090Z,8.89
2019-04-06T02:20:06.008Z,8.99
2019-04-06T02:21:05.956Z,8.96
2019-04-06T02:22:05.966Z,8.91
2019-04-06T02:23:06.029Z,8.92
2019-04-06T02:24:05.991Z,8.91
2019-04-06T02:25:06.006Z,8.91
2019-04-06T02:26:06.018Z,8.96
2019-04-06T02:27:06.131Z,8.94
2019-04-06T02:28:06.044Z,8.92
2019-04-06T02:29:06.054Z,8.95
2019-04-06T02:30:06.081Z,8.99
2019-04-06T02:31:06.078Z,8.87
2019-04-06T02:32:06.126Z,8.92
2019-04-06T02:34:06.124Z,8.87
2019-04-06T02:35:06.143Z,8.84
2019-04-06T02:36:06.219Z,8.92
2019-04-06T02:37:06.152Z,8.86
2019-04-06T02:38:06.171Z,8.94
2019-04-06T02:39:06.290Z,8.91
2019-04-06T02:40:08.222Z,8.89
2019-04-06T02:41:06.206Z,8.89
2019-04-06T02:42:06.227Z,8.86
2019-04-06T02:43:06.231Z,8.99
2019-04-06T02:44:06.244Z,8.91
2019-04-06T02:46:06.333Z,8.91
2019-04-06T02:47:06.400Z,8.80
2019-04-06T02:48:06.298Z,8.84
2019-04-06T02:49:06.312Z,8.81
2019-04-06T02:50:06.580Z,8.80
2019-04-06T02:51:06.372Z,8.84
2019-04-06T02:52:06.391Z,8.83
2019-04-06T02:53:06.360Z,8.89
2019-04-06T02:54:06.453Z,8.81
2019-04-06T02:55:06.375Z,8.95
2019-04-06T02:56:06.389Z,8.91
2019-04-06T02:57:06.432Z,8.89
2019-04-06T02:58:06.416Z,8.89
2019-04-06T02:59:06.439Z,8.89
2019-04-06T03:00:06.463Z,8.98
2019-04-06T03:01:06.457Z,8.91
2019-04-06T03:02:06.465Z,8.95
2019-04-06T03:03:06.604Z,8.79
2019-04-06T03:04:06.541Z,8.86
2019-04-06T03:05:06.592Z,8.96
2019-04-06T03:06:06.514Z,8.98
2019-04-06T03:07:06.612Z,8.99
2019-04-06T03:08:06.549Z,9.01
2019-04-06T03:09:06.823Z,8.92
2019-04-06T03:10:06.783Z,8.94
2019-04-06T03:11:06.573Z,8.98
2019-04-06T03:12:06.597Z,8.98
2019-04-06T03:13:06.602Z,8.99
2019-04-06T03:14:06.618Z,8.92
2019-04-06T03:15:06.732Z,8.86
2019-04-06T03:16:06.639Z,8.95
2019-04-06T03:17:06.711Z,8.99
2019-04-06T03:18:07.119Z,8.87
2019-04-06T03:19:06.699Z,8.87
2019-04-06T03:20:06.893Z,8.89
2019-04-06T03:22:06.720Z,8.96
2019-04-06T03:23:06.737Z,8.94
2019-04-06T03:24:06.769Z,8.95
2019-04-06T03:25:06.773Z,8.98
2019-04-06T03:26:06.785Z,9.05
2019-04-06T03:27:06.798Z,9.05
2019-04-06T03:28:06.793Z,8.98
2019-04-06T03:29:06.798Z,8.92
2019-04-06T03:30:06.952Z,8.94
2019-04-06T03:31:06.831Z,8.94
2019-04-06T03:32:07.186Z,8.89
2019-04-06T03:33:06.895Z,8.84
2019-04-06T03:34:06.866Z,8.86
2019-04-06T03:35:06.888Z,8.95
2019-04-06T03:36:06.891Z,8.80
2019-04-06T03:37:06.916Z,8.95
2019-04-06T03:38:06.909Z,8.98
2019-04-06T03:39:06.925Z,8.96
2019-04-06T03:40:07.337Z,8.95
2019-04-06T03:43:07.753Z,8.98
2019-04-06T03:44:06.984Z,8.94
2019-04-06T03:45:07.001Z,9.01
2019-04-06T03:46:07.105Z,9.01
2019-04-06T03:47:07.020Z,8.92
2019-04-06T03:48:07.031Z,8.95
2019-04-06T03:49:07.119Z,8.95
2019-04-06T03:50:07.048Z,9.05
2019-04-06T03:51:07.164Z,9.04
2019-04-06T03:53:07.441Z,8.98
2019-04-06T03:54:07.655Z,8.99
2019-04-06T03:55:07.338Z,9.08
2019-04-06T03:57:14.458Z,9.05
2019-04-06T03:58:07.378Z,9.11
2019-04-06T03:59:07.177Z,9.11
2019-04-06T04:00:07.219Z,9.10
2019-04-06T04:01:07.186Z,9.17
2019-04-06T04:02:07.316Z,9.15
2019-04-06T04:03:07.332Z,9.21
2019-04-06T04:04:07.276Z,9.21
2019-04-06T04:05:07.359Z,9.20
2019-04-06T04:06:07.258Z,9.05
2019-04-06T04:07:07.268Z,9.13
2019-04-06T04:08:07.306Z,9.20
2019-04-06T04:09:07.438Z,9.17
2019-04-06T04:12:07.827Z,9.23
2019-04-06T04:14:08.381Z,9.31
2019-04-06T04:15:07.485Z,9.21
2019-04-06T04:16:07.413Z,9.10
2019-04-06T04:17:07.386Z,9.13
2019-04-06T04:18:07.404Z,9.13
2019-04-06T04:19:07.428Z,9.20
2019-04-06T04:20:07.694Z,9.23
2019-04-06T04:21:07.446Z,9.14
2019-04-06T04:24:08.416Z,9.21
2019-04-06T04:25:07.582Z,9.20
2019-04-06T04:26:07.646Z,9.21
2019-04-06T04:27:07.515Z,9.28
2019-04-06T04:28:07.593Z,9.31
2019-04-06T04:29:07.630Z,9.26
2019-04-06T04:30:07.755Z,9.24
2019-04-06T04:31:07.559Z,9.28
2019-04-06T04:32:07.575Z,9.31
2019-04-06T04:33:07.610Z,9.36
2019-04-06T04:34:07.615Z,9.31
2019-04-06T04:35:07.825Z,9.28
2019-04-06T04:36:07.662Z,9.29
2019-04-06T04:37:07.640Z,9.29
2019-04-06T04:38:07.655Z,9.24
2019-04-06T04:39:07.663Z,9.31
2019-04-06T04:40:07.780Z,9.33
2019-04-06T04:41:07.690Z,9.15
2019-04-06T04:42:07.717Z,9.15
2019-04-06T04:43:07.870Z,9.20
2019-04-06T04:44:07.729Z,9.32
2019-04-06T04:45:07.747Z,9.33
2019-04-06T04:47:07.805Z,9.31
2019-04-06T04:48:07.831Z,9.23
2019-04-06T04:49:07.795Z,9.31
2019-04-06T04:50:07.937Z,9.26
2019-04-06T04:51:07.814Z,9.28
2019-04-06T04:52:07.830Z,9.32
2019-04-06T04:53:07.848Z,9.24
2019-04-06T04:54:07.848Z,9.28
2019-04-06T04:55:07.965Z,9.28
2019-04-06T04:56:07.883Z,9.29
2019-04-06T04:57:08.094Z,9.23
2019-04-06T04:58:08.010Z,9.28
2019-04-06T04:59:07.919Z,9.26
2019-04-06T05:00:08.024Z,9.26
2019-04-06T05:01:07.937Z,9.24
2019-04-06T05:02:07.988Z,9.31
2019-04-06T05:04:07.988Z,9.20
2019-04-06T05:05:09.535Z,9.24
2019-04-06T05:07:08.213Z,9.35
2019-04-06T05:08:08.606Z,9.26
2019-04-06T05:09:08.113Z,9.29
2019-04-06T05:10:08.052Z,9.26
2019-04-06T05:11:08.053Z,9.28
2019-04-06T05:12:08.077Z,9.28
2019-04-06T05:13:08.081Z,9.28
2019-04-06T05:14:08.091Z,9.31
2019-04-06T05:15:08.605Z,9.26
2019-04-06T05:16:08.540Z,9.26
2019-04-06T05:17:08.740Z,9.26
2019-04-06T05:18:08.140Z,9.31
2019-04-06T05:19:09.108Z,9.39
2019-04-06T05:20:08.191Z,9.36
2019-04-06T05:21:08.180Z,9.38
2019-04-06T05:22:08.261Z,9.33
2019-04-06T05:23:08.217Z,9.38
2019-04-06T05:24:08.216Z,9.42
2019-04-06T05:25:08.286Z,9.38
2019-04-06T05:26:08.244Z,9.43
2019-04-06T05:27:08.294Z,9.38
2019-04-06T05:28:08.281Z,9.36
2019-04-06T05:29:08.573Z,9.40
2019-04-06T05:30:08.296Z,9.39
2019-04-06T05:31:09.578Z,9.38
2019-04-06T05:32:09.713Z,9.35
2019-04-06T05:33:08.361Z,9.36
2019-04-06T05:34:08.353Z,9.35
2019-04-06T05:35:08.446Z,9.36
2019-04-06T05:36:08.540Z,9.40
2019-04-06T05:37:08.397Z,9.36
2019-04-06T05:38:08.397Z,9.43
2019-04-06T05:39:08.582Z,9.38
2019-04-06T05:40:08.765Z,9.42
2019-04-06T05:41:08.663Z,9.39
2019-04-06T05:42:08.617Z,9.43
2019-04-06T05:43:08.557Z,9.46
2019-04-06T05:44:08.466Z,9.50
2019-04-06T05:45:09.034Z,9.40
2019-04-06T05:46:08.524Z,9.48
2019-04-06T05:47:08.695Z,9.38
2019-04-06T05:48:08.897Z,9.46
2019-04-06T05:49:09.035Z,9.42
2019-04-06T05:51:08.636Z,9.48
2019-04-06T05:52:12.034Z,9.48
2019-04-06T05:53:08.580Z,9.53
2019-04-06T05:54:08.775Z,9.54
2019-04-06T05:55:08.610Z,9.53
2019-04-06T05:56:08.622Z,9.56
2019-04-06T05:57:08.626Z,9.54
2019-04-06T05:58:10.610Z,9.54
2019-04-06T05:59:10.256Z,9.47
2019-04-06T06:00:10.166Z,9.51
2019-04-06T06:01:10.961Z,9.50
2019-04-06T06:03:10.788Z,9.56
2019-04-06T06:04:10.647Z,9.51
2019-04-06T06:05:10.505Z,9.58
2019-04-06T06:06:09.286Z,9.56
2019-04-06T06:07:08.774Z,9.68
2019-04-06T06:08:08.766Z,9.47
2019-04-06T06:09:08.784Z,9.48
2019-04-06T06:10:08.803Z,9.57
2019-04-06T06:11:08.808Z,9.54
2019-04-06T06:12:08.954Z,9.60
2019-04-06T06:13:09.145Z,9.60
2019-04-06T06:14:08.850Z,9.65
2019-04-06T06:15:08.857Z,9.65
2019-04-06T06:16:08.874Z,9.65
2019-04-06T06:17:09.034Z,9.65
2019-04-06T06:19:09.484Z,9.61
2019-04-06T06:20:09.057Z,9.75
2019-04-06T06:21:10.076Z,9.75
2019-04-06T06:22:08.944Z,9.79
2019-04-06T06:23:09.138Z,9.79
2019-04-06T06:24:08.992Z,9.96
2019-04-06T06:25:08.985Z,9.90
2019-04-06T06:26:08.997Z,9.89
2019-04-06T06:27:09.009Z,9.97
2019-04-06T06:28:14.205Z,9.93
2019-04-06T06:29:09.039Z,9.99
2019-04-06T06:30:09.054Z,10.02
2019-04-06T06:32:09.265Z,9.99
2019-04-06T06:33:09.087Z,9.99
2019-04-06T06:34:09.151Z,10.01
2019-04-06T06:35:09.113Z,10.05
2019-04-06T06:36:09.122Z,10.14
2019-04-06T06:37:09.200Z,10.11
2019-04-06T06:38:09.156Z,10.12
2019-04-06T06:39:09.791Z,10.15
2019-04-06T06:40:09.478Z,10.23
2019-04-06T06:41:09.891Z,10.22
2019-04-06T06:42:09.204Z,10.18
2019-04-06T06:43:09.236Z,10.20
2019-04-06T06:44:09.228Z,10.29
2019-04-06T06:45:09.890Z,10.23
2019-04-06T06:46:10.102Z,10.26
2019-04-06T06:47:09.267Z,10.26
2019-04-06T06:48:09.278Z,10.33
2019-04-06T06:49:09.291Z,10.38
2019-04-06T06:50:09.404Z,10.42
2019-04-06T06:51:09.326Z,10.38
2019-04-06T06:52:09.328Z,10.36
2019-04-06T06:53:09.342Z,10.34
2019-04-06T06:54:09.355Z,10.34
2019-04-06T06:55:09.368Z,10.42
2019-04-06T06:56:09.384Z,10.38
2019-04-06T06:57:09.402Z,10.42
2019-04-06T06:58:09.410Z,10.36
2019-04-06T06:59:09.642Z,10.38
2019-04-06T07:00:10.124Z,10.45
2019-04-06T07:01:10.559Z,10.45
2019-04-06T07:02:09.460Z,10.52
2019-04-06T07:03:09.728Z,10.42
2019-04-06T07:04:09.496Z,10.44
2019-04-06T07:05:09.533Z,10.51
2019-04-06T07:06:09.610Z,10.42
2019-04-06T07:07:09.529Z,10.47
2019-04-06T07:08:09.665Z,10.51
2019-04-06T07:09:09.669Z,10.59
2019-04-06T07:10:09.726Z,10.61
2019-04-06T07:11:09.933Z,10.61
2019-04-06T07:12:09.693Z,10.66
2019-04-06T07:13:09.613Z,10.68
2019-04-06T07:14:09.666Z,10.63
2019-04-06T07:15:09.643Z,10.67
2019-04-06T07:16:09.647Z,10.71
2019-04-06T07:17:09.680Z,10.70
2019-04-06T07:18:09.711Z,10.79
2019-04-06T07:20:09.880Z,10.78
2019-04-06T07:21:09.713Z,10.84
2019-04-06T07:22:10.656Z,10.85
2019-04-06T07:23:09.907Z,10.76
2019-04-06T07:24:09.753Z,10.86
2019-04-06T07:25:10.245Z,10.94
2019-04-06T07:26:09.782Z,11.02
2019-04-06T07:27:09.813Z,10.96
2019-04-06T07:28:09.973Z,11.07
2019-04-06T07:29:09.816Z,11.09
2019-04-06T07:30:10.119Z,11.10
2019-04-06T07:32:10.733Z,11.11
2019-04-06T07:34:10.653Z,11.00
2019-04-06T07:36:09.924Z,11.09
2019-04-06T07:37:09.921Z,11.09
2019-04-06T07:38:10.006Z,11.14
2019-04-06T07:39:09.952Z,11.21
2019-04-06T07:40:10.175Z,11.25
2019-04-06T07:41:09.979Z,11.15
2019-04-06T07:42:10.192Z,11.18
2019-04-06T07:43:10.023Z,11.22
2019-04-06T07:44:10.016Z,11.21
2019-04-06T07:45:10.044Z,11.32
2019-04-06T07:46:10.040Z,11.37
2019-04-06T07:47:10.062Z,11.35
2019-04-06T07:48:10.077Z,11.35
2019-04-06T07:49:10.604Z,11.28
2019-04-06T07:50:10.245Z,11.32
2019-04-06T07:51:10.217Z,11.33
2019-04-06T07:52:10.305Z,11.35
2019-04-06T07:54:10.977Z,11.19
2019-04-06T07:55:10.334Z,11.19
2019-04-06T07:56:11.387Z,11.18
2019-04-06T07:57:10.192Z,11.19
2019-04-06T07:58:10.213Z,11.10
2019-04-06T07:59:10.456Z,11.24
2019-04-06T08:00:10.258Z,11.19
2019-04-06T08:02:10.273Z,11.21
2019-04-06T08:03:10.357Z,11.19
2019-04-06T08:04:10.348Z,11.28
2019-04-06T08:05:10.311Z,11.27
2019-04-06T08:06:10.405Z,11.33
2019-04-06T08:07:10.327Z,11.28
2019-04-06T08:09:10.362Z,11.36
2019-04-06T08:10:10.689Z,11.46
2019-04-06T08:11:10.389Z,11.44
2019-04-06T08:12:10.392Z,11.43
2019-04-06T08:13:10.408Z,11.40
2019-04-06T08:14:10.528Z,11.44
2019-04-06T08:15:10.462Z,11.51
2019-04-06T08:16:10.778Z,11.52
2019-04-06T08:18:10.473Z,11.49
2019-04-06T08:19:10.485Z,11.51
2019-04-06T08:20:10.502Z,11.47
2019-04-06T08:21:10.545Z,11.43
2019-04-06T08:22:10.537Z,11.47
2019-04-06T08:25:10.568Z,11.62
2019-04-06T08:26:10.789Z,11.57
2019-04-06T08:27:10.595Z,11.61
2019-04-06T08:28:10.614Z,11.72
2019-04-06T08:29:12.153Z,11.72
2019-04-06T08:30:10.665Z,11.76
2019-04-06T08:31:10.744Z,11.78
2019-04-06T08:32:10.753Z,11.76
2019-04-06T08:34:13.448Z,11.94
2019-04-06T08:35:11.678Z,11.95
2019-04-06T08:37:10.789Z,12.04
2019-04-06T08:39:11.738Z,11.91
2019-04-06T08:40:11.346Z,12.10
2019-04-06T08:41:11.060Z,12.12
2019-04-06T08:42:10.993Z,12.21
2019-04-06T08:43:10.984Z,12.16
2019-04-06T08:44:11.204Z,12.16
2019-04-06T08:45:13.610Z,12.10
2019-04-06T08:46:11.038Z,12.19
2019-04-06T08:47:11.311Z,12.20
2019-04-06T08:48:11.093Z,12.27
2019-04-06T08:49:10.894Z,12.20
2019-04-06T08:50:10.906Z,12.17
2019-04-06T08:51:11.211Z,12.27
2019-04-06T08:52:11.834Z,12.24
2019-04-06T08:53:10.958Z,12.19
2019-04-06T08:54:10.995Z,12.27
2019-04-06T08:55:10.979Z,12.35
2019-04-06T08:56:11.159Z,12.34
2019-04-06T08:57:11.156Z,12.17
2019-04-06T08:58:11.020Z,12.32
2019-04-06T08:59:13.311Z,12.35
2019-04-06T09:00:11.755Z,12.49
2019-04-06T09:02:11.999Z,12.70
2019-04-06T09:03:11.096Z,12.70
2019-04-06T09:04:11.102Z,12.79
2019-04-06T09:05:11.119Z,12.75
2019-04-06T09:06:11.128Z,12.79
2019-04-06T09:07:11.159Z,12.79
2019-04-06T09:09:11.183Z,12.67
2019-04-06T09:10:11.340Z,12.53
2019-04-06T09:11:11.439Z,12.62
2019-04-06T09:12:12.106Z,12.60
2019-04-06T09:13:11.242Z,12.57
2019-04-06T09:14:11.249Z,12.60
2019-04-06T09:15:12.064Z,12.71
2019-04-06T09:17:11.286Z,12.90
2019-04-06T09:18:11.357Z,12.96
2019-04-06T09:19:12.037Z,13.04
2019-04-06T09:20:11.331Z,13.01
2019-04-06T09:21:11.588Z,13.15
2019-04-06T09:22:11.600Z,13.25
2019-04-06T09:23:11.369Z,13.28
2019-04-06T09:24:11.384Z,13.45
2019-04-06T09:25:11.401Z,13.48
2019-04-06T09:26:11.424Z,13.46
2019-04-06T09:27:11.433Z,13.48
2019-04-06T09:28:11.497Z,13.48
2019-04-06T09:29:22.571Z,13.51
2019-04-06T09:30:11.467Z,13.30
2019-04-06T09:31:11.502Z,13.36
2019-04-06T09:32:11.505Z,13.25
2019-04-06T09:34:11.520Z,13.04
2019-04-06T09:35:11.559Z,13.08
2019-04-06T09:36:11.603Z,12.90
2019-04-06T09:37:11.561Z,12.87
2019-04-06T09:38:11.577Z,13.00
2019-04-06T09:39:11.725Z,12.89
2019-04-06T09:40:11.607Z,12.90
2019-04-06T09:41:11.693Z,12.95
2019-04-06T09:42:11.750Z,13.04
2019-04-06T09:43:11.946Z,13.04
2019-04-06T09:44:11.692Z,13.15
2019-04-06T09:45:11.698Z,13.26
2019-04-06T09:46:11.701Z,13.42
2019-04-06T09:47:11.740Z,13.49
2019-04-06T09:48:11.724Z,13.62
2019-04-06T09:49:11.745Z,13.55
2019-04-06T09:50:11.756Z,13.69
2019-04-06T09:51:11.766Z,13.79
2019-04-06T09:52:11.779Z,13.84
2019-04-06T09:53:12.021Z,13.88
2019-04-06T09:54:11.810Z,13.88
2019-04-06T09:55:11.993Z,13.88
2019-04-06T09:56:11.919Z,13.97
2019-04-06T09:57:11.851Z,14.04
2019-04-06T09:58:11.922Z,14.04
2019-04-06T09:59:13.129Z,14.00
2019-04-06T10:01:11.907Z,13.97
2019-04-06T10:02:11.972Z,14.10
2019-04-06T10:03:13.108Z,14.14
2019-04-06T10:04:12.133Z,14.22
2019-04-06T10:05:12.015Z,14.35
2019-04-06T10:06:12.512Z,14.45
2019-04-06T10:07:12.397Z,14.35
2019-04-06T10:08:12.251Z,14.40
2019-04-06T10:09:13.097Z,14.57
2019-04-06T10:10:13.317Z,14.58
2019-04-06T10:12:12.334Z,14.52
2019-04-06T10:13:12.199Z,14.52
2019-04-06T10:14:12.349Z,14.55
2019-04-06T10:15:12.102Z,14.51
2019-04-06T10:16:12.121Z,14.52
2019-04-06T10:19:12.162Z,14.62
2019-04-06T10:20:12.182Z,14.57
2019-04-06T10:21:12.263Z,14.58
2019-04-06T10:22:12.200Z,14.61
2019-04-06T10:23:12.450Z,14.52
2019-04-06T10:24:12.265Z,14.54
2019-04-06T10:25:12.242Z,14.55
2019-04-06T10:26:12.258Z,14.68
2019-04-06T10:27:12.279Z,14.84
2019-04-06T10:28:12.329Z,15.01
2019-04-06T10:29:12.615Z,14.94
2019-04-06T10:30:14.948Z,15.01
2019-04-06T10:31:12.558Z,14.94
2019-04-06T10:32:12.617Z,14.89
2019-04-06T10:33:12.722Z,15.13
2019-04-06T10:34:12.505Z,15.16
2019-04-06T10:35:12.485Z,15.17
2019-04-06T10:36:12.423Z,15.19
2019-04-06T10:37:12.770Z,15.14
2019-04-06T10:39:12.619Z,15.17
2019-04-06T10:40:12.462Z,15.20
2019-04-06T10:41:12.473Z,15.29
2019-04-06T10:42:12.492Z,15.23
2019-04-06T10:43:12.631Z,15.23
2019-04-06T10:44:12.861Z,15.20
2019-04-06T10:45:12.533Z,15.28
2019-04-06T10:46:12.552Z,15.29
2019-04-06T10:47:12.580Z,15.35
2019-04-06T10:50:13.361Z,15.34
2019-04-06T10:52:13.905Z,15.50
2019-04-06T10:53:13.381Z,15.50
2019-04-06T10:54:12.814Z,15.49
2019-04-06T10:55:12.724Z,15.49
2019-04-06T10:56:12.698Z,15.65
2019-04-06T10:57:12.749Z,15.74
2019-04-06T10:58:12.723Z,15.80
2019-04-06T10:59:12.747Z,15.96
2019-04-06T11:00:12.749Z,16.12
2019-04-06T11:01:12.764Z,16.39
2019-04-06T11:02:12.790Z,16.49
2019-04-06T11:03:12.867Z,16.60
2019-04-06T11:04:12.890Z,16.66
2019-04-06T11:06:12.839Z,16.75
2019-04-06T11:08:13.357Z,16.93
2019-04-06T11:09:12.886Z,16.82
2019-04-06T11:10:13.000Z,16.61
2019-04-06T11:11:16.365Z,16.60
2019-04-06T11:12:13.622Z,16.60
2019-04-06T11:13:12.957Z,16.58
2019-04-06T11:14:13.064Z,16.20
2019-04-06T11:15:12.971Z,16.30
2019-04-06T11:16:12.988Z,16.09
2019-04-06T11:17:13.000Z,16.38
2019-04-06T11:18:13.019Z,16.35
2019-04-06T11:19:13.385Z,16.38
2019-04-06T11:20:13.110Z,16.33
2019-04-06T11:21:13.481Z,16.42
2019-04-06T11:22:13.082Z,16.28
2019-04-06T11:23:13.092Z,16.34
2019-04-06T11:24:13.134Z,16.30
2019-04-06T11:25:13.137Z,16.20
2019-04-06T11:26:14.013Z,16.17
2019-04-06T11:27:13.166Z,16.21
2019-04-06T11:28:13.178Z,16.14
2019-04-06T11:29:13.662Z,16.25
2019-04-06T11:30:14.810Z,16.08
2019-04-06T11:31:13.271Z,15.92
2019-04-06T11:33:13.243Z,15.83
2019-04-06T11:34:13.534Z,15.83
2019-04-06T11:35:13.283Z,15.82
2019-04-06T11:36:13.408Z,15.80
2019-04-06T11:37:13.299Z,15.78
2019-04-06T11:38:13.318Z,15.76
2019-04-06T11:39:13.334Z,15.64
2019-04-06T11:40:13.687Z,15.53
2019-04-06T11:41:13.362Z,15.49
2019-04-06T11:42:13.425Z,15.65
2019-04-06T11:43:13.541Z,15.68
2019-04-06T11:44:13.414Z,15.84
2019-04-06T11:45:13.416Z,15.97
2019-04-06T11:46:13.635Z,16.20
2019-04-06T11:47:13.739Z,16.34
2019-04-06T11:48:13.466Z,16.49
2019-04-06T11:49:13.482Z,16.15
2019-04-06T11:50:13.494Z,16.05
2019-04-06T11:51:13.510Z,16.34
2019-04-06T11:52:13.570Z,16.33
2019-04-06T11:53:13.560Z,16.56
2019-04-06T11:54:13.926Z,16.79
2019-04-06T11:55:13.886Z,16.88
2019-04-06T11:56:13.668Z,16.85
2019-04-06T11:58:14.016Z,16.89
2019-04-06T11:59:13.631Z,16.88
2019-04-06T12:00:24.494Z,16.82
2019-04-06T12:02:14.128Z,17.08
2019-04-06T12:04:13.758Z,17.54
2019-04-06T12:05:13.875Z,17.63
2019-04-06T12:06:14.357Z,17.92
2019-04-06T12:07:13.965Z,18.00
2019-04-06T12:09:13.928Z,18.10
2019-04-06T12:10:13.794Z,17.79
2019-04-06T12:11:14.086Z,17.95
2019-04-06T12:12:13.958Z,18.07
2019-04-06T12:13:13.845Z,18.18
2019-04-06T12:14:14.218Z,17.99
2019-04-06T12:15:13.919Z,18.08
2019-04-06T12:16:13.903Z,17.92
2019-04-06T12:17:13.904Z,18.10
2019-04-06T12:18:14.295Z,18.14
2019-04-06T12:19:14.072Z,18.12
2019-04-06T12:20:14.115Z,18.10
2019-04-06T12:21:13.993Z,18.14
2019-04-06T12:22:13.984Z,18.25
2019-04-06T12:23:14.107Z,18.26
2019-04-06T12:24:14.052Z,18.30
2019-04-06T12:25:14.472Z,17.96
2019-04-06T12:26:14.090Z,17.87
2019-04-06T12:27:14.182Z,17.89
2019-04-06T12:28:14.151Z,17.72
2019-04-06T12:29:16.545Z,17.44
2019-04-06T12:30:14.827Z,17.46
2019-04-06T12:31:14.141Z,17.64
2019-04-06T12:32:14.366Z,17.54
2019-04-06T12:33:14.156Z,17.44
2019-04-06T12:34:14.429Z,17.44
2019-04-06T12:35:14.197Z,17.46
2019-04-06T12:36:14.219Z,17.62
2019-04-06T12:38:15.546Z,17.44
2019-04-06T12:39:15.280Z,17.70
2019-04-06T12:40:14.596Z,17.86
2019-04-06T12:41:14.314Z,18.11
2019-04-06T12:42:14.317Z,18.44
2019-04-06T12:43:14.558Z,18.66
2019-04-06T12:44:14.485Z,18.70
2019-04-06T12:45:14.350Z,18.69
2019-04-06T12:46:14.433Z,18.65
2019-04-06T12:47:14.394Z,18.76
2019-04-06T12:48:14.393Z,18.72
2019-04-06T12:49:14.424Z,18.90
2019-04-06T12:50:14.423Z,19.07
2019-04-06T12:51:14.465Z,19.13
2019-04-06T12:52:14.822Z,18.90
2019-04-06T12:53:14.745Z,18.33
2019-04-06T12:54:14.791Z,18.35
2019-04-06T12:55:14.524Z,18.45
2019-04-06T12:56:15.060Z,18.35
2019-04-06T12:57:14.554Z,18.30
2019-04-06T12:58:14.580Z,18.30
2019-04-06T12:59:14.597Z,18.47
2019-04-06T13:00:14.588Z,18.57
2019-04-06T13:01:14.947Z,18.76
2019-04-06T13:02:14.628Z,18.41
2019-04-06T13:03:14.662Z,18.44
2019-04-06T13:04:15.508Z,18.69
2019-04-06T13:05:15.001Z,18.94
2019-04-06T13:06:14.750Z,18.88
2019-04-06T13:07:15.154Z,18.87
2019-04-06T13:08:14.714Z,18.70
2019-04-06T13:09:14.759Z,18.55
2019-04-06T13:10:15.284Z,17.81
2019-04-06T13:11:14.932Z,17.86
2019-04-06T13:12:15.242Z,17.90
2019-04-06T13:13:14.814Z,18.07
2019-04-06T13:14:14.874Z,18.33
2019-04-06T13:15:14.845Z,18.50
2019-04-06T13:16:14.837Z,18.52
2019-04-06T13:17:15.174Z,18.51
2019-04-06T13:18:15.117Z,18.23
2019-04-06T13:19:14.886Z,18.25
2019-04-06T13:20:15.135Z,18.32
2019-04-06T13:21:14.943Z,18.18
2019-04-06T13:22:14.948Z,18.15
2019-04-06T13:23:15.005Z,18.07
2019-04-06T13:24:14.982Z,17.95
2019-04-06T13:25:15.077Z,18.20
2019-04-06T13:26:15.123Z,18.55
2019-04-06T13:27:15.429Z,18.55
2019-04-06T13:28:15.178Z,18.67
2019-04-06T13:30:15.111Z,18.87
2019-04-06T13:31:15.410Z,18.73
2019-04-06T13:32:15.114Z,18.82
2019-04-06T13:33:15.459Z,19.08
2019-04-06T13:34:15.142Z,19.22
2019-04-06T13:35:15.200Z,19.13
2019-04-06T13:36:16.037Z,18.90
2019-04-06T13:37:16.575Z,18.69
2019-04-06T13:38:16.319Z,19.10
2019-04-06T13:39:15.234Z,19.10
2019-04-06T13:40:15.240Z,18.91
2019-04-06T13:42:15.274Z,18.95
2019-04-06T13:43:15.279Z,18.70
2019-04-06T13:44:15.300Z,18.45
2019-04-06T13:45:15.337Z,18.67
2019-04-06T13:46:15.333Z,18.73
2019-04-06T13:47:15.361Z,18.72
2019-04-06T13:48:15.684Z,18.66
2019-04-06T13:49:15.376Z,18.72
2019-04-06T13:50:15.382Z,19.18
2019-04-06T13:51:15.408Z,19.50
2019-04-06T13:52:15.420Z,19.84
2019-04-06T13:53:15.795Z,19.41
2019-04-06T13:54:15.461Z,19.21
2019-04-06T13:55:15.493Z,19.48
2019-04-06T13:56:15.495Z,19.41
2019-04-06T13:57:15.618Z,19.63
2019-04-06T13:58:15.572Z,19.87
2019-04-06T13:59:15.593Z,19.95
2019-04-06T14:00:15.561Z,20.10
2019-04-06T14:01:17.580Z,20.14
2019-04-06T14:02:15.821Z,20.41
2019-04-06T14:03:15.651Z,20.52
2019-04-06T14:04:16.117Z,20.55
2019-04-06T14:05:15.708Z,20.61
2019-04-06T14:06:16.299Z,20.54
2019-04-06T14:07:16.259Z,20.08
2019-04-06T14:08:16.439Z,20.18
2019-04-06T14:09:15.778Z,20.32
2019-04-06T14:10:16.082Z,20.54
2019-04-06T14:12:16.576Z,20.80
2019-04-06T14:13:16.350Z,21.09
2019-04-06T14:14:16.857Z,21.65
2019-04-06T14:15:16.709Z,21.44
2019-04-06T14:16:15.983Z,20.92